マドリード/バラハス の空港の天気 - METARとTAF

マドリード・バラハス国際空港 ( LEMD / MAD ) - スペイン マドリード
飛行場実況気象(Metar)
観測時間09/21 00:30 CEST (09/20 22:30 UTC)
風向・風速北 3m/s
視程10km以上
天気現象
なし
気温22℃
湿度57%
気圧1019hPa
METARLEMD 202230Z 36005KT CAVOK 22/13 Q1019 NOSIG
過去の天気等 Google飛行場航空写真 Wunderground天気予報

過去48時間のMETAR

飛行場予報(TAF)
発表時間: 9/20 19:00 CEST (9/20 17:00 UTC)
予報対象時間: 20日20時 CEST ~ 22日2時 CEST
風向・風速不定 3m/s
視程10km以上
なし
20日20時 CEST ~ 20日23時 CEST に一時的に
少しの積乱雲 雲底高度 1520m
TAF LEMD 201700Z 2018/2124 VRB05KT CAVOK TX34/2115Z TN15/2106Z
TEMPO 2018/2021 FEW050CB